Archival Weather

Snohomish County (Paine Fld)

Everett, Washington (KPAE)

Report from: Thursday, November 16, 2023 3:11 AM PST
Current time: Sunday, June 16, 2024 11:17 PM PDT

Current weather – Weather history – Daily summaries
Weather forecast

Present weatherMist
Temperature1.1°C (34.0°F)
Wind chill-1.8°C (28.8°F)
Dew point-0.6°C (30.9°F)
Winds 5 kts (2.6 m/s, 5.8 mph) North (360°)
Visibility5 mi. (8 km)
Clouds Scattered clouds 100 ft. (30 m)
Altimeter30.09 in.Hg (1019 mB)
Relative humidity88 %
Density altitude-1,801 ft. (-549 m)
Remarks Fully automated report
Automated weather observing station with precipitation discriminator
Flight conditions Visual Meteorological Conditions
Raw dataKPAE 161111Z AUTO 36005KT 5SM BR SCT001 01/M01 A3009 RMK AO2 T00111006
An error has occurred. This application may no longer respond until reloaded. Reload 🗙